Current Weather

Chicago O'Hare International

Chicago, Illinois (KORD)

Report from: Tuesday, December 6, 2022 11:51 PM CST
Current time: Wednesday, December 7, 2022 12:28 AM CST

Nearby weather
Weather history
Weather forecast

Present weatherMist
Temperature3.3°C (37.9°F)
Wind chill1.9°C (35.5°F)
Dew point1.7°C (35.1°F)
Winds 3 kts (1.5 m/s, 3.5 mph) North-Northwest (340°)
Visibility4 mi. (6.4 km)
Clouds Ceiling: Overcast 1,200 ft. (366 m)
Altimeter30.09 in.Hg (1019 mB)
Relative humidity89 %
Density altitude-1,511 ft. (-461 m)
Sea-level pressure101.9 kPa (1019 mB, 30.10 in.Hg)
Max temp last 6 hours6.1°C (43.0°F)
Min temp last 6 hours2.2°C (36.0°F)
Max temp last 24 hours6.1°C (43.0°F)
Min temp last 24 hours2.2°C (36.0°F)
Remarks Automated weather observing station with precipitation discriminator
Pressure rising, then falling
Flight conditions Marginal Visual Meteorological Conditions
Raw dataKORD 070551Z 34003KT 4SM BR OVC012 03/02 A3009 RMK AO2 SLP194 T00330017 10061 20022 400610022 50009
An unhandled exception has occurred. See browser dev tools for details. Reload 🗙